Time;durP1;ratioP1;P1;durP2;ratioP2;P2;SDS_P1;SDS_P2;PMS_P1;PMS_P2;Temp;Humidity;BMP_temperature;BMP_pressure;BME280_temperature;BME280_humidity;BME280_pressure;Samples;Min_cycle;Max_cycle;Signal;HPM_P1;HPM_P2
2020/12/25 00:02:10;;;;;;;0.30;0.30;;;10.90;61.30;;;;;;5038927;28;20259;-66
2020/12/25 00:04:36;;;;;;;0.50;0.50;;;10.90;61.40;;;;;;5043261;28;20295;-67
2020/12/25 00:07:04;;;;;;;0.30;0.30;;;10.90;61.40;;;;;;5043385;28;20213;-67
2020/12/25 00:09:30;;;;;;;0.50;0.50;;;10.90;61.50;;;;;;5044514;28;20231;-67
2020/12/25 00:11:57;;;;;;;0.50;0.50;;;10.90;61.50;;;;;;5040484;28;20282;-70
2020/12/25 00:14:23;;;;;;;0.47;0.47;;;10.90;61.70;;;;;;5046073;28;20222;-70
2020/12/25 00:16:50;;;;;;;0.40;0.40;;;10.90;61.60;;;;;;5042594;28;20650;-70
2020/12/25 00:19:17;;;;;;;0.40;0.40;;;10.80;61.50;;;;;;5045670;28;20247;-68
2020/12/25 00:21:44;;;;;;;0.30;0.30;;;10.80;61.50;;;;;;5043924;28;20220;-65
2020/12/25 00:24:10;;;;;;;0.30;0.30;;;10.80;61.40;;;;;;5041949;28;20225;-68
2020/12/25 00:26:37;;;;;;;0.30;0.30;;;10.80;61.40;;;;;;5047069;28;20209;-68
2020/12/25 00:29:04;;;;;;;0.20;0.20;;;10.70;61.40;;;;;;5046233;28;20214;-67
2020/12/25 00:31:32;;;;;;;0.40;0.40;;;10.70;61.40;;;;;;5045272;28;20221;-67
2020/12/25 00:34:01;;;;;;;0.40;0.40;;;10.70;61.30;;;;;;5047772;28;20701;-68
2020/12/25 00:36:30;;;;;;;0.30;0.30;;;10.70;61.40;;;;;;5044454;28;20210;-67
2020/12/25 00:38:59;;;;;;;0.40;0.40;;;10.60;61.30;;;;;;5049155;28;20219;-67
2020/12/25 00:41:26;;;;;;;0.30;0.30;;;10.60;61.40;;;;;;5045656;28;20292;-67
2020/12/25 00:43:54;;;;;;;0.30;0.30;;;10.60;61.40;;;;;;5046191;28;20233;-67
2020/12/25 00:46:21;;;;;;;0.30;0.30;;;10.50;61.30;;;;;;5047271;28;20202;-67
2020/12/25 00:48:48;;;;;;;0.20;0.20;;;10.50;61.30;;;;;;5046399;28;20202;-68
2020/12/25 00:51:17;;;;;;;0.63;0.20;;;10.50;61.40;;;;;;5043112;28;20198;-67
2020/12/25 00:53:45;;;;;;;0.97;0.40;;;10.50;61.50;;;;;;5045572;28;20748;-68
2020/12/25 00:56:13;;;;;;;0.30;0.30;;;10.40;61.30;;;;;;5044242;28;20205;-66
2020/12/25 00:58:41;;;;;;;0.30;0.30;;;10.40;61.20;;;;;;5045598;28;20217;-67
2020/12/25 01:01:09;;;;;;;0.30;0.30;;;10.40;61.10;;;;;;5046741;28;20261;-67
2020/12/25 01:03:38;;;;;;;0.40;0.37;;;10.40;61.10;;;;;;5048476;28;20751;-67
2020/12/25 01:06:10;;;;;;;0.30;0.30;;;10.30;61.10;;;;;;5047363;28;20213;-67
2020/12/25 01:08:37;;;;;;;0.30;0.30;;;10.30;61.20;;;;;;5046907;28;20209;-67
2020/12/25 01:11:05;;;;;;;0.30;0.30;;;10.30;61.20;;;;;;5047163;28;20715;-67
2020/12/25 01:13:32;;;;;;;0.20;0.20;;;10.30;61.30;;;;;;5048339;28;20225;-67
2020/12/25 01:16:03;;;;;;;0.33;0.33;;;10.30;61.30;;;;;;5044779;28;20206;-66
2020/12/25 01:18:29;;;;;;;0.30;0.30;;;10.30;61.40;;;;;;5049546;28;20209;-66
2020/12/25 01:20:56;;;;;;;0.33;0.33;;;10.20;61.30;;;;;;5046597;28;20208;-67
2020/12/25 01:23:22;;;;;;;0.40;0.40;;;10.30;61.20;;;;;;5048564;28;20205;-66
2020/12/25 01:25:48;;;;;;;0.30;0.30;;;10.30;61.10;;;;;;5048782;28;20205;-67
2020/12/25 01:28:16;;;;;;;0.43;0.43;;;10.30;61.20;;;;;;5049111;28;20659;-66
2020/12/25 01:30:42;;;;;;;0.30;0.30;;;10.30;61.30;;;;;;5048122;28;20240;-68
2020/12/25 01:33:09;;;;;;;1.27;0.40;;;10.30;61.20;;;;;;5045542;28;20262;-67
2020/12/25 01:35:35;;;;;;;0.50;0.50;;;10.30;61.20;;;;;;5047560;28;20690;-67
2020/12/25 01:38:02;;;;;;;0.40;0.40;;;10.30;61.10;;;;;;5046347;28;20214;-66
2020/12/25 01:40:29;;;;;;;0.50;0.50;;;10.30;61.10;;;;;;5045031;28;20216;-68
2020/12/25 01:42:55;;;;;;;0.40;0.40;;;10.30;61.10;;;;;;5042643;28;20197;-68
2020/12/25 01:45:23;;;;;;;0.50;0.50;;;10.30;61.10;;;;;;5044236;28;20610;-67
2020/12/25 01:47:51;;;;;;;0.40;0.40;;;10.30;61.20;;;;;;5046737;28;20577;-67
2020/12/25 01:50:19;;;;;;;0.30;0.30;;;10.30;61.30;;;;;;5046091;28;20312;-68
2020/12/25 01:52:47;;;;;;;0.50;0.50;;;10.30;61.30;;;;;;5044965;28;20197;-66
2020/12/25 01:55:15;;;;;;;0.40;0.40;;;10.30;61.20;;;;;;5037247;28;20256;-67
2020/12/25 01:57:43;;;;;;;0.40;0.40;;;10.40;61.20;;;;;;5045967;28;20611;-67
2020/12/25 02:00:10;;;;;;;0.40;0.40;;;10.40;61.20;;;;;;5045802;28;20205;-65
2020/12/25 02:02:37;;;;;;;0.47;0.47;;;10.40;61.10;;;;;;5045738;28;20193;-65
2020/12/25 02:05:03;;;;;;;0.50;0.50;;;10.40;61.10;;;;;;5044790;28;20339;-64
2020/12/25 02:07:30;;;;;;;0.40;0.40;;;10.40;61.30;;;;;;5045504;28;20221;-66
2020/12/25 02:09:57;;;;;;;0.50;0.50;;;10.40;61.30;;;;;;5044795;28;20449;-67
2020/12/25 02:12:23;;;;;;;0.53;0.53;;;10.40;61.30;;;;;;5042411;28;20197;-66
2020/12/25 02:14:50;;;;;;;0.50;0.50;;;10.40;61.20;;;;;;5043701;28;20295;-66
2020/12/25 02:17:49;;;;;;;0.40;0.40;;;10.40;61.20;;;;;;5045908;28;20903;-66
2020/12/25 02:20:16;;;;;;;0.40;0.40;;;10.30;61.20;;;;;;5031475;28;20212;-66
2020/12/25 02:22:44;;;;;;;0.57;0.57;;;10.40;61.10;;;;;;5040486;28;20782;-66
2020/12/25 02:28:54;;;;;;;0.60;0.60;;;10.40;61.30;;;;;;5050376;28;20203;-66
2020/12/25 02:31:21;;;;;;;0.50;0.50;;;10.40;61.10;;;;;;5037643;28;20240;-65
2020/12/25 02:33:47;;;;;;;0.50;0.50;;;10.40;61.20;;;;;;5044945;28;21022;-66
2020/12/25 02:36:14;;;;;;;0.60;0.60;;;10.40;61.20;;;;;;5046049;28;20221;-66
2020/12/25 02:38:41;;;;;;;0.50;0.50;;;10.40;61.20;;;;;;5046707;28;20216;-67
2020/12/25 02:41:07;;;;;;;0.57;0.57;;;10.40;61.20;;;;;;5045957;28;20209;-67
2020/12/25 02:43:34;;;;;;;0.60;0.60;;;10.40;61.20;;;;;;5045672;28;20225;-66
2020/12/25 02:46:00;;;;;;;0.60;0.60;;;10.40;61.40;;;;;;5045297;28;20217;-67
2020/12/25 02:48:26;;;;;;;0.50;0.50;;;10.40;61.40;;;;;;5046457;28;20225;-67
2020/12/25 02:50:53;;;;;;;0.70;0.70;;;10.40;61.40;;;;;;5046599;28;20221;-67
2020/12/25 02:53:19;;;;;;;0.57;0.57;;;10.40;61.40;;;;;;5047110;28;20224;-66
2020/12/25 02:55:46;;;;;;;0.47;0.47;;;10.50;61.50;;;;;;5044454;28;20221;-67
2020/12/25 02:58:13;;;;;;;0.60;0.60;;;10.50;61.60;;;;;;5044969;28;20616;-67
2020/12/25 03:00:39;;;;;;;0.60;0.60;;;10.40;61.60;;;;;;5044511;28;20202;-67
2020/12/25 03:03:05;;;;;;;0.60;0.60;;;10.40;61.60;;;;;;5045833;28;20198;-67
2020/12/25 03:05:32;;;;;;;0.50;0.50;;;10.40;61.60;;;;;;5043653;28;20206;-67
2020/12/25 03:07:58;;;;;;;0.47;0.47;;;10.40;61.30;;;;;;5044874;28;20225;-66
2020/12/25 03:10:25;;;;;;;0.50;0.50;;;10.40;61.10;;;;;;5043848;28;20232;-66
2020/12/25 03:12:52;;;;;;;0.70;0.70;;;10.30;60.90;;;;;;5044563;28;20202;-67
2020/12/25 03:15:19;;;;;;;0.40;0.40;;;10.30;60.90;;;;;;5044108;28;20222;-66
2020/12/25 03:17:45;;;;;;;0.70;0.70;;;10.20;60.70;;;;;;5044566;28;20549;-66
2020/12/25 03:20:11;;;;;;;0.53;0.53;;;10.20;60.70;;;;;;5045207;28;20213;-66
2020/12/25 03:22:38;;;;;;;0.40;0.40;;;10.20;60.70;;;;;;5046351;28;20213;-66
2020/12/25 03:25:04;;;;;;;0.40;0.40;;;10.10;60.30;;;;;;5043088;28;20217;-67
2020/12/25 03:27:30;;;;;;;0.40;0.40;;;10.10;60.10;;;;;;5045985;28;20202;-66
2020/12/25 03:29:58;;;;;;;0.40;0.40;;;10.00;59.90;;;;;;5046759;28;20306;-66
2020/12/25 03:32:24;;;;;;;0.40;0.40;;;9.90;59.80;;;;;;5044398;28;20213;-67
2020/12/25 03:34:50;;;;;;;0.20;0.20;;;9.80;59.80;;;;;;5043635;28;20240;-66
2020/12/25 03:37:18;;;;;;;0.23;0.23;;;9.80;59.80;;;;;;5043355;28;20615;-67
2020/12/25 03:39:46;;;;;;;0.40;0.40;;;9.70;59.80;;;;;;5045688;28;20687;-66
2020/12/25 03:42:12;;;;;;;0.40;0.40;;;9.60;59.70;;;;;;5042593;28;20209;-67
2020/12/25 03:44:39;;;;;;;0.30;0.30;;;9.60;60.30;;;;;;5045540;28;20253;-67
2020/12/25 03:47:06;;;;;;;0.20;0.20;;;9.50;59.90;;;;;;5043152;28;20231;-67
2020/12/25 03:49:33;;;;;;;0.20;0.20;;;9.50;60.10;;;;;;5046514;28;20225;-67
2020/12/25 03:51:59;;;;;;;0.30;0.30;;;9.40;60.10;;;;;;5043177;28;20530;-67
2020/12/25 03:54:25;;;;;;;0.30;0.30;;;9.40;60.20;;;;;;5044457;28;20610;-66
2020/12/25 03:56:52;;;;;;;0.30;0.30;;;9.30;60.10;;;;;;5044667;28;20217;-67
2020/12/25 03:59:18;;;;;;;0.20;0.20;;;9.30;60.10;;;;;;5041211;28;20209;-67
2020/12/25 04:01:44;;;;;;;0.20;0.20;;;9.20;60.00;;;;;;5043648;28;20198;-67
2020/12/25 04:04:12;;;;;;;0.20;0.20;;;9.20;60.00;;;;;;5045047;28;20232;-67
2020/12/25 04:06:39;;;;;;;0.20;0.20;;;9.10;60.00;;;;;;5046400;28;20194;-67
2020/12/25 04:09:05;;;;;;;0.30;0.30;;;9.10;60.00;;;;;;5042417;28;20561;-68
2020/12/25 04:11:32;;;;;;;0.30;0.30;;;9.00;60.10;;;;;;5044616;28;20666;-67
2020/12/25 04:14:00;;;;;;;0.20;0.20;;;9.00;60.20;;;;;;5044187;28;20225;-67
2020/12/25 04:16:26;;;;;;;0.30;0.30;;;9.00;60.30;;;;;;5045120;28;20281;-67
2020/12/25 04:18:52;;;;;;;0.20;0.20;;;8.90;60.30;;;;;;5044634;28;20205;-66
2020/12/25 04:21:20;;;;;;;0.30;0.30;;;8.90;60.40;;;;;;5041976;28;20197;-67
2020/12/25 04:23:46;;;;;;;0.20;0.20;;;8.80;60.30;;;;;;5043837;28;20234;-67
2020/12/25 04:26:12;;;;;;;0.30;0.30;;;8.80;60.30;;;;;;5045959;28;20198;-67
2020/12/25 04:28:39;;;;;;;0.23;0.23;;;8.80;60.30;;;;;;5043852;28;20205;-67
2020/12/25 04:31:05;;;;;;;0.20;0.20;;;8.80;60.30;;;;;;5043629;28;20231;-67
2020/12/25 04:33:32;;;;;;;0.20;0.20;;;8.70;60.20;;;;;;5044528;28;20294;-67
2020/12/25 04:35:58;;;;;;;0.20;0.20;;;8.70;60.30;;;;;;5047937;28;20198;-67
2020/12/25 04:38:26;;;;;;;0.20;0.20;;;8.70;60.40;;;;;;5048445;28;20212;-67
2020/12/25 04:40:53;;;;;;;0.20;0.20;;;8.60;60.40;;;;;;5049737;28;20677;-67
2020/12/25 04:43:19;;;;;;;0.20;0.20;;;8.60;60.40;;;;;;5047073;28;20211;-67
2020/12/25 04:45:46;;;;;;;0.30;0.30;;;8.60;60.50;;;;;;5047442;28;20232;-67
2020/12/25 04:48:14;;;;;;;0.30;0.30;;;8.60;60.70;;;;;;5049435;28;20210;-67
2020/12/25 04:50:41;;;;;;;0.30;0.30;;;8.60;60.70;;;;;;5049191;28;20228;-67
2020/12/25 04:53:08;;;;;;;0.30;0.30;;;8.60;60.70;;;;;;5074293;22;20228;-66
2020/12/25 04:55:35;;;;;;;0.40;0.40;;;8.50;60.70;;;;;;5067641;28;20239;-66
2020/12/25 04:58:01;;;;;;;0.30;0.30;;;8.50;60.70;;;;;;5068006;28;20205;-64
2020/12/25 05:00:28;;;;;;;0.37;0.30;;;8.50;60.90;;;;;;5067995;28;20670;-66
2020/12/25 05:02:55;;;;;;;0.20;0.20;;;8.50;60.90;;;;;;5065835;28;20217;-67
2020/12/25 05:05:28;;;;;;;0.20;0.20;;;8.40;60.90;;;;;;5067956;28;20223;-65
2020/12/25 05:07:57;;;;;;;0.20;0.20;;;8.40;61.10;;;;;;5067419;28;20280;-66
2020/12/25 05:10:23;;;;;;;0.20;0.20;;;8.40;61.10;;;;;;5069010;28;20232;-66
2020/12/25 05:12:51;;;;;;;0.27;0.27;;;8.40;61.10;;;;;;5069352;28;20231;-65
2020/12/25 05:15:17;;;;;;;0.30;0.30;;;8.30;61.10;;;;;;5067335;28;20239;-66
2020/12/25 05:17:44;;;;;;;0.27;0.27;;;8.30;61.90;;;;;;5068316;28;20224;-64
2020/12/25 05:20:11;;;;;;;0.20;0.20;;;8.30;61.30;;;;;;5066393;28;20209;-64
2020/12/25 05:22:38;;;;;;;0.20;0.20;;;8.30;61.20;;;;;;5067077;28;20225;-66
2020/12/25 05:25:08;;;;;;;0.20;0.20;;;8.30;61.30;;;;;;5068141;28;20197;-68
2020/12/25 05:27:35;;;;;;;0.20;0.20;;;8.20;61.40;;;;;;5067148;28;20201;-65
2020/12/25 05:30:06;;;;;;;0.40;0.30;;;8.20;61.60;;;;;;5067981;28;20224;-67
2020/12/25 05:32:35;;;;;;;0.30;0.30;;;8.20;61.70;;;;;;5067606;28;20278;-67
2020/12/25 05:35:01;;;;;;;0.30;0.30;;;8.20;61.70;;;;;;5065519;28;20687;-67
2020/12/25 05:37:37;;;;;;;0.20;0.20;;;8.20;61.80;;;;;;5064994;28;20567;-68
2020/12/25 05:40:06;;;;;;;0.30;0.30;;;8.10;61.70;;;;;;5068339;28;20209;-66
2020/12/25 05:42:45;;;;;;;0.20;0.20;;;8.10;61.60;;;;;;5067606;28;20229;-67
2020/12/25 05:45:16;;;;;;;0.30;0.30;;;8.10;61.80;;;;;;5063282;28;20206;-66
2020/12/25 05:47:47;;;;;;;0.30;0.30;;;8.10;61.70;;;;;;5065542;28;20692;-66
2020/12/25 05:50:20;;;;;;;0.27;0.27;;;8.10;61.70;;;;;;5068444;28;20237;-66
2020/12/25 05:52:48;;;;;;;0.30;0.30;;;8.00;61.90;;;;;;5066197;28;20245;-67
2020/12/25 05:55:18;;;;;;;0.30;0.30;;;8.00;61.80;;;;;;5067027;28;20650;-67
2020/12/25 05:57:50;;;;;;;0.30;0.30;;;8.00;61.90;;;;;;5067412;28;20212;-66
2020/12/25 06:00:20;;;;;;;0.40;0.40;;;8.00;62.00;;;;;;5066953;28;20279;-67
2020/12/25 06:02:47;;;;;;;0.40;0.40;;;8.00;62.00;;;;;;5067447;28;20598;-67
2020/12/25 06:05:16;;;;;;;0.40;0.40;;;8.00;62.00;;;;;;5064590;28;20259;-67
2020/12/25 06:07:50;;;;;;;0.50;0.50;;;8.00;62.10;;;;;;5066881;28;20609;-67
2020/12/25 06:10:19;;;;;;;0.40;0.40;;;8.00;62.30;;;;;;5065131;28;20217;-67
2020/12/25 06:12:46;;;;;;;0.30;0.30;;;8.00;62.30;;;;;;5068123;28;20693;-65
2020/12/25 06:15:21;;;;;;;0.50;0.50;;;7.90;62.40;;;;;;5066232;28;20208;-65
2020/12/25 06:18:09;;;;;;;0.60;0.60;;;7.90;62.40;;;;;;5066837;28;20215;-67
2020/12/25 06:20:42;;;;;;;0.60;0.60;;;7.90;62.70;;;;;;5064791;28;20209;-65
2020/12/25 06:23:12;;;;;;;0.40;0.40;;;7.90;62.60;;;;;;5066660;28;20233;-65
2020/12/25 06:25:41;;;;;;;0.40;0.40;;;7.90;62.60;;;;;;5064791;28;20205;-66
2020/12/25 06:28:08;;;;;;;0.60;0.60;;;7.90;62.60;;;;;;5065837;28;20682;-67
2020/12/25 06:30:36;;;;;;;0.57;0.57;;;7.90;62.60;;;;;;5066341;28;20377;-65
2020/12/25 06:33:03;;;;;;;0.50;0.50;;;7.90;62.70;;;;;;5065183;28;20240;-66
2020/12/25 06:35:36;;;;;;;0.40;0.40;;;7.90;62.80;;;;;;5064808;28;20219;-66
2020/12/25 06:38:09;;;;;;;0.40;0.40;;;7.90;62.90;;;;;;5065663;28;20891;-65
2020/12/25 06:40:36;;;;;;;0.60;0.60;;;7.90;62.90;;;;;;5066410;28;20224;-66
2020/12/25 06:43:11;;;;;;;0.87;0.50;;;7.90;62.90;;;;;;5065928;28;20217;-67
2020/12/25 06:45:38;;;;;;;0.67;0.67;;;7.90;62.80;;;;;;5065015;28;20205;-67
2020/12/25 06:48:17;;;;;;;0.50;0.50;;;7.90;63.20;;;;;;5065659;28;20670;-66
2020/12/25 06:50:52;;;;;;;0.60;0.60;;;7.90;63.10;;;;;;5065718;28;20270;-65
2020/12/25 06:53:40;;;;;;;0.50;0.50;;;7.90;62.90;;;;;;5065864;28;20240;-67
2020/12/25 06:56:13;;;;;;;0.50;0.50;;;7.90;63.10;;;;;;5064969;28;20610;-67
2020/12/25 06:58:44;;;;;;;0.50;0.50;;;7.90;62.90;;;;;;5066392;28;20273;-67
2020/12/25 07:01:13;;;;;;;0.50;0.50;;;7.90;62.90;;;;;;5064961;28;20201;-69
2020/12/25 07:03:40;;;;;;;0.50;0.50;;;7.90;62.90;;;;;;5064520;28;20197;-68
2020/12/25 07:06:09;;;;;;;0.43;0.43;;;7.90;62.80;;;;;;5066254;28;20212;-65
2020/12/25 07:08:45;;;;;;;0.60;0.60;;;8.00;63.00;;;;;;5064838;28;20219;-66
2020/12/25 07:11:13;;;;;;;0.60;0.60;;;8.00;62.90;;;;;;5063598;28;20220;-66
2020/12/25 07:13:40;;;;;;;0.60;0.60;;;8.00;62.80;;;;;;5066761;28;20200;-67
2020/12/25 07:16:07;;;;;;;0.50;0.50;;;8.00;62.80;;;;;;5063654;28;20267;-65
2020/12/25 07:18:35;;;;;;;0.60;0.60;;;8.00;62.70;;;;;;5061757;28;20303;-65
2020/12/25 07:21:04;;;;;;;0.70;0.70;;;8.00;62.60;;;;;;5064582;28;20244;-68
2020/12/25 07:23:31;;;;;;;0.60;0.60;;;8.00;62.60;;;;;;5066685;28;20228;-67
2020/12/25 07:25:59;;;;;;;0.60;0.60;;;8.00;62.50;;;;;;5065603;28;20255;-65
2020/12/25 07:28:28;;;;;;;0.63;0.63;;;8.00;62.60;;;;;;5064168;28;20198;-66
2020/12/25 07:30:58;;;;;;;0.87;0.60;;;8.00;62.50;;;;;;5064742;28;20270;-66
2020/12/25 07:33:25;;;;;;;0.60;0.60;;;8.00;62.50;;;;;;5065206;28;20225;-66
2020/12/25 07:35:53;;;;;;;0.50;0.50;;;8.00;62.40;;;;;;5065420;28;20250;-66
2020/12/25 07:38:20;;;;;;;0.63;0.63;;;8.00;62.40;;;;;;5065967;28;20206;-66
2020/12/25 07:40:47;;;;;;;0.60;0.60;;;8.00;62.30;;;;;;5064963;28;20227;-67
2020/12/25 07:43:14;;;;;;;0.60;0.60;;;8.00;62.30;;;;;;5065423;28;20319;-66
2020/12/25 07:45:42;;;;;;;0.60;0.60;;;8.00;62.40;;;;;;5066178;28;20227;-67
2020/12/25 07:48:09;;;;;;;0.70;0.70;;;8.00;62.30;;;;;;5063948;28;20265;-66
2020/12/25 07:50:39;;;;;;;0.63;0.63;;;8.10;62.50;;;;;;5062745;28;20232;-68
2020/12/25 07:53:12;;;;;;;0.80;0.80;;;8.00;62.50;;;;;;5066145;28;20260;-67
2020/12/25 07:55:44;;;;;;;0.77;0.77;;;8.10;62.60;;;;;;5065354;28;20269;-68
2020/12/25 07:58:12;;;;;;;0.60;0.60;;;8.10;62.50;;;;;;5068137;28;20215;-66
2020/12/25 08:00:38;;;;;;;0.80;0.80;;;8.10;62.40;;;;;;5064841;28;20788;-66
2020/12/25 08:03:06;;;;;;;0.70;0.70;;;8.10;62.40;;;;;;5059505;28;20237;-73
2020/12/25 08:05:33;;;;;;;0.70;0.70;;;8.10;62.50;;;;;;5064267;28;20208;-68
2020/12/25 08:08:01;;;;;;;0.77;0.77;;;8.10;62.40;;;;;;5061995;28;20300;-66
2020/12/25 08:10:30;;;;;;;0.90;0.90;;;8.20;62.40;;;;;;5062085;28;20233;-66
2020/12/25 08:12:59;;;;;;;0.90;0.90;;;8.10;62.20;;;;;;5054395;28;20232;-66
2020/12/25 08:15:27;;;;;;;0.80;0.80;;;8.20;62.30;;;;;;5060607;28;20209;-66
2020/12/25 08:17:57;;;;;;;0.70;0.70;;;8.20;62.20;;;;;;5064194;28;20243;-65
2020/12/25 08:20:25;;;;;;;0.70;0.70;;;8.20;62.20;;;;;;5062100;28;20216;-66
2020/12/25 08:22:58;;;;;;;0.90;0.90;;;8.20;62.20;;;;;;5063709;28;20229;-66
2020/12/25 08:25:27;;;;;;;0.90;0.90;;;8.30;62.20;;;;;;5065160;28;20203;-65
2020/12/25 08:27:55;;;;;;;0.90;0.90;;;8.30;62.10;;;;;;5063046;28;20732;-66
2020/12/25 08:30:22;;;;;;;0.87;0.83;;;8.30;62.10;;;;;;5063494;28;20231;-67
2020/12/25 08:32:51;;;;;;;0.80;0.80;;;8.40;62.20;;;;;;5060626;28;20627;-65
2020/12/25 08:35:19;;;;;;;0.90;0.90;;;8.40;62.10;;;;;;5061964;28;20231;-65
2020/12/25 08:37:53;;;;;;;0.87;0.87;;;8.40;62.00;;;;;;5065506;28;20209;-65
2020/12/25 08:40:22;;;;;;;0.90;0.90;;;8.40;62.30;;;;;;5061286;28;20204;-67
2020/12/25 08:42:48;;;;;;;1.00;1.00;;;8.40;62.10;;;;;;5060166;28;20252;-66
2020/12/25 08:45:21;;;;;;;1.00;1.00;;;8.40;62.10;;;;;;5062766;28;20209;-71
2020/12/25 08:48:10;;;;;;;1.13;1.10;;;8.50;62.10;;;;;;5063391;28;20270;-70
2020/12/25 08:50:38;;;;;;;1.27;1.03;;;8.40;62.10;;;;;;5061480;28;20237;-69
2020/12/25 08:53:20;;;;;;;0.93;0.90;;;8.50;62.10;;;;;;5061135;28;20266;-68
2020/12/25 08:55:49;;;;;;;1.20;1.20;;;8.50;62.30;;;;;;5062947;28;20308;-70
2020/12/25 08:58:18;;;;;;;1.20;1.10;;;8.60;62.30;;;;;;5064297;28;20231;-72
2020/12/25 09:00:59;;;;;;;1.20;1.20;;;8.60;62.20;;;;;;5060814;28;20201;-70
2020/12/25 09:03:37;;;;;;;1.17;1.10;;;8.60;62.00;;;;;;5061362;28;20333;-77
2020/12/25 09:06:04;;;;;;;1.00;1.00;;;8.70;62.10;;;;;;5064261;28;20201;-74
2020/12/25 09:08:31;;;;;;;1.60;1.20;;;8.70;62.00;;;;;;5059172;28;20213;-76
2020/12/25 09:10:57;;;;;;;1.60;1.50;;;8.70;61.90;;;;;;5059303;28;20228;-71
2020/12/25 09:13:24;;;;;;;1.70;1.50;;;8.80;61.90;;;;;;5062373;28;20233;-72
2020/12/25 09:15:51;;;;;;;1.40;1.30;;;8.80;61.80;;;;;;5063656;28;20252;-68
2020/12/25 09:18:18;;;;;;;1.30;1.20;;;8.80;61.60;;;;;;5063809;28;20205;-67
2020/12/25 09:20:44;;;;;;;0.93;0.93;;;8.90;61.60;;;;;;5064989;28;20204;-70
2020/12/25 09:23:10;;;;;;;1.50;1.40;;;8.90;61.60;;;;;;5067150;28;20299;-67
2020/12/25 09:25:38;;;;;;;1.20;1.10;;;8.90;61.60;;;;;;5069510;28;20209;-65
2020/12/25 09:28:04;;;;;;;1.30;1.20;;;9.00;61.70;;;;;;5066803;28;20589;-66
2020/12/25 09:30:31;;;;;;;1.10;1.10;;;9.00;61.60;;;;;;5064833;28;20233;-66
2020/12/25 09:32:58;;;;;;;1.03;1.03;;;9.00;61.50;;;;;;5069230;28;20225;-65
2020/12/25 09:35:25;;;;;;;1.30;0.93;;;9.10;61.50;;;;;;5063430;28;20215;-67
2020/12/25 09:37:51;;;;;;;1.03;1.03;;;9.10;61.40;;;;;;5065572;28;20205;-66
2020/12/25 09:40:18;;;;;;;1.03;1.03;;;9.20;61.30;;;;;;5066003;28;20209;-68
2020/12/25 09:42:44;;;;;;;1.30;1.20;;;9.20;61.10;;;;;;5066667;28;20277;-72
2020/12/25 09:45:11;;;;;;;1.40;1.30;;;9.20;61.00;;;;;;5066186;28;20302;-70
2020/12/25 09:47:37;;;;;;;1.20;1.10;;;9.30;60.90;;;;;;5068118;28;20209;-69
2020/12/25 09:50:05;;;;;;;1.13;1.03;;;9.30;60.80;;;;;;5063349;28;20620;-70
2020/12/25 09:52:32;;;;;;;1.07;1.07;;;9.40;60.80;;;;;;5066209;28;20237;-72
2020/12/25 09:54:58;;;;;;;1.00;1.00;;;9.40;60.60;;;;;;5065671;28;20212;-70
2020/12/25 09:57:24;;;;;;;1.20;1.10;;;9.40;60.40;;;;;;5065253;28;20209;-70
2020/12/25 09:59:51;;;;;;;1.17;1.00;;;9.40;60.30;;;;;;5064113;28;20197;-66
2020/12/25 10:02:18;;;;;;;1.30;1.20;;;9.40;60.30;;;;;;5066810;28;20732;-66
2020/12/25 10:04:44;;;;;;;1.23;1.13;;;9.40;60.30;;;;;;5066123;28;20256;-65
2020/12/25 10:07:11;;;;;;;1.30;1.20;;;9.40;60.30;;;;;;5063472;28;20292;-65
2020/12/25 10:09:39;;;;;;;1.20;1.10;;;9.50;60.50;;;;;;5066580;28;20224;-66
2020/12/25 10:12:05;;;;;;;1.17;1.17;;;9.50;60.50;;;;;;5059621;28;20235;-66
2020/12/25 10:14:32;;;;;;;1.63;1.53;;;9.60;60.50;;;;;;5064928;28;20214;-68
2020/12/25 10:16:59;;;;;;;1.40;1.30;;;9.60;60.30;;;;;;5066044;28;20754;-72
2020/12/25 10:19:25;;;;;;;1.30;1.20;;;9.70;60.20;;;;;;5066730;28;20197;-70
2020/12/25 10:21:52;;;;;;;1.43;1.33;;;9.70;59.90;;;;;;5061814;28;20738;-69
2020/12/25 10:24:19;;;;;;;1.50;1.40;;;9.70;59.70;;;;;;5066838;28;20209;-72
2020/12/25 10:26:48;;;;;;;1.60;1.50;;;9.80;59.70;;;;;;5064300;28;20223;-65
2020/12/25 10:29:17;;;;;;;2.30;1.67;;;9.70;59.60;;;;;;5066416;28;20239;-65
2020/12/25 10:31:47;;;;;;;2.20;1.80;;;9.80;59.60;;;;;;5064618;28;20233;-64
2020/12/25 10:34:14;;;;;;;1.00;1.00;;;9.80;59.50;;;;;;5062101;28;20295;-66
2020/12/25 10:36:41;;;;;;;1.23;1.13;;;9.80;59.60;;;;;;5063032;28;20277;-66
2020/12/25 10:39:09;;;;;;;1.03;1.00;;;9.90;59.40;;;;;;5065703;28;21081;-65
2020/12/25 10:41:37;;;;;;;1.83;1.73;;;9.90;59.30;;;;;;5065948;28;20233;-65
2020/12/25 10:44:04;;;;;;;1.60;1.40;;;9.90;59.20;;;;;;5066769;28;20208;-66
2020/12/25 10:46:31;;;;;;;1.47;1.33;;;9.90;59.10;;;;;;5064215;28;20269;-66
2020/12/25 10:48:57;;;;;;;1.30;1.20;;;9.90;59.00;;;;;;5063969;28;20209;-65
2020/12/25 10:51:24;;;;;;;1.97;1.63;;;9.90;59.00;;;;;;5063672;28;20236;-65
2020/12/25 10:53:50;;;;;;;1.40;1.27;;;9.90;58.80;;;;;;5064690;28;20205;-65
2020/12/25 10:56:21;;;;;;;1.57;1.47;;;10.00;58.70;;;;;;5067306;28;20693;-64
2020/12/25 10:58:49;;;;;;;1.37;1.27;;;9.90;58.50;;;;;;5066734;28;20208;-64
2020/12/25 11:01:23;;;;;;;1.47;1.37;;;9.90;58.30;;;;;;5063511;28;20280;-65
2020/12/25 11:03:49;;;;;;;1.50;1.40;;;9.80;58.00;;;;;;5064527;28;20201;-65
2020/12/25 11:06:17;;;;;;;1.37;1.27;;;9.80;58.10;;;;;;5065928;28;20669;-66
2020/12/25 11:08:47;;;;;;;1.17;1.17;;;9.70;58.00;;;;;;5065443;28;20216;-66
2020/12/25 11:11:22;;;;;;;1.10;1.10;;;9.60;57.90;;;;;;5064282;28;20274;-65
2020/12/25 11:13:49;;;;;;;2.20;1.27;;;9.60;58.00;;;;;;5064917;28;20208;-65
2020/12/25 11:16:22;;;;;;;1.30;1.20;;;9.50;58.10;;;;;;5064740;28;20283;-66
2020/12/25 11:18:48;;;;;;;1.93;1.83;;;9.40;58.10;;;;;;5065934;28;20250;-66
2020/12/25 11:21:22;;;;;;;1.90;1.70;;;9.40;58.30;;;;;;5064782;28;20222;-65
2020/12/25 11:23:50;;;;;;;1.40;1.30;;;9.30;58.50;;;;;;5064598;28;20355;-66
2020/12/25 11:26:22;;;;;;;1.27;1.17;;;9.30;58.70;;;;;;5066230;28;20201;-66
2020/12/25 11:28:50;;;;;;;1.13;1.13;;;9.30;58.80;;;;;;5066385;28;20208;-66
2020/12/25 11:31:17;;;;;;;1.27;1.23;;;9.30;58.90;;;;;;5062431;28;20364;-66
2020/12/25 11:33:44;;;;;;;1.00;1.00;;;9.40;59.00;;;;;;5065745;28;20750;-66
2020/12/25 11:36:15;;;;;;;1.40;1.30;;;9.40;59.00;;;;;;5066228;28;20216;-65
2020/12/25 11:38:42;;;;;;;1.27;1.23;;;9.50;59.00;;;;;;5067896;28;20205;-66
2020/12/25 11:41:10;;;;;;;1.20;1.10;;;9.50;59.00;;;;;;5063026;28;20208;-65
2020/12/25 11:43:38;;;;;;;1.40;1.27;;;9.50;59.00;;;;;;5065836;28;20228;-65
2020/12/25 11:46:06;;;;;;;1.60;1.50;;;9.50;58.80;;;;;;5064331;28;20622;-64
2020/12/25 11:48:33;;;;;;;1.53;1.43;;;9.60;58.90;;;;;;5063133;28;20613;-66
2020/12/25 11:51:00;;;;;;;1.90;1.80;;;9.60;58.80;;;;;;5061255;28;20233;-66
2020/12/25 11:53:26;;;;;;;1.60;1.50;;;9.60;58.90;;;;;;5059398;28;20765;-64
2020/12/25 11:55:53;;;;;;;1.50;1.40;;;9.70;59.00;;;;;;5061851;28;20211;-66
2020/12/25 11:58:19;;;;;;;1.80;1.70;;;9.70;58.90;;;;;;5064756;28;20209;-66
2020/12/25 12:00:46;;;;;;;2.20;2.10;;;9.70;58.80;;;;;;5062089;28;20220;-65
2020/12/25 12:03:17;;;;;;;1.73;1.63;;;9.80;58.80;;;;;;5065097;28;20227;-65
2020/12/25 12:05:44;;;;;;;2.13;2.03;;;9.80;58.60;;;;;;5063816;28;20205;-65
2020/12/25 12:08:14;;;;;;;2.27;2.10;;;9.90;58.60;;;;;;5065726;28;20213;-66
2020/12/25 12:10:41;;;;;;;2.50;2.30;;;9.90;58.50;;;;;;5065582;28;20330;-67
2020/12/25 12:13:07;;;;;;;2.50;2.30;;;9.90;58.30;;;;;;5064966;28;20229;-67
2020/12/25 12:15:36;;;;;;;2.47;2.27;;;9.90;58.30;;;;;;5063224;28;20208;-66
2020/12/25 12:18:04;;;;;;;1.83;1.73;;;9.90;58.10;;;;;;5065948;28;20205;-65
2020/12/25 12:20:32;;;;;;;2.07;1.97;;;9.90;58.20;;;;;;5063745;28;20201;-65
2020/12/25 12:22:59;;;;;;;2.50;2.13;;;9.90;58.00;;;;;;5065542;28;20229;-65
2020/12/25 12:25:26;;;;;;;2.10;2.00;;;9.90;58.50;;;;;;5065517;28;20666;-66
2020/12/25 12:27:52;;;;;;;2.50;2.30;;;9.80;57.80;;;;;;5063250;28;20205;-66
2020/12/25 12:30:19;;;;;;;2.10;2.00;;;9.80;57.90;;;;;;5062720;28;20254;-66
2020/12/25 12:32:46;;;;;;;1.97;1.87;;;9.80;58.00;;;;;;5063709;28;20229;-66
2020/12/25 12:35:12;;;;;;;2.70;2.50;;;9.70;58.10;;;;;;5063394;28;20205;-66
2020/12/25 12:37:40;;;;;;;2.13;2.03;;;9.70;58.30;;;;;;5062684;28;20258;-65
2020/12/25 12:40:09;;;;;;;2.20;2.10;;;9.70;58.50;;;;;;5060139;28;20205;-65
2020/12/25 12:42:35;;;;;;;2.30;2.20;;;9.70;58.60;;;;;;5063210;28;20232;-65
2020/12/25 12:45:02;;;;;;;2.70;2.50;;;9.70;58.50;;;;;;5065189;28;20209;-66
2020/12/25 12:47:29;;;;;;;2.63;2.43;;;9.70;58.60;;;;;;5064599;28;20311;-68
2020/12/25 12:49:55;;;;;;;2.40;2.20;;;9.70;58.60;;;;;;5065923;28;20217;-69
2020/12/25 12:52:22;;;;;;;2.53;2.33;;;9.70;58.60;;;;;;5060697;28;20229;-69
2020/12/25 12:54:49;;;;;;;2.23;2.13;;;9.70;58.60;;;;;;5061615;28;20228;-71
2020/12/25 12:57:16;;;;;;;2.50;2.33;;;9.70;59.10;;;;;;5065944;28;20236;-68
2020/12/25 12:59:42;;;;;;;2.57;2.37;;;9.70;58.40;;;;;;5065254;28;20266;-64
2020/12/25 13:02:08;;;;;;;2.07;1.97;;;9.60;58.40;;;;;;5058035;28;20299;-65
2020/12/25 13:04:35;;;;;;;2.27;2.07;;;9.60;58.40;;;;;;5066403;28;20209;-65